Time;durP1;ratioP1;P1;durP2;ratioP2;P2;SDS_P1;SDS_P2;PMS_P1;PMS_P2;Temp;Humidity;BMP_temperature;BMP_pressure;BME280_temperature;BME280_humidity;BME280_pressure;Samples;Min_cycle;Max_cycle;Signal;HPM_P1;HPM_P2
2021/08/15 00:02:24;;;;;;;10.35;6.97;;;;;;;;;;5107251;28;20044;-71
2021/08/15 00:04:50;;;;;;;14.65;8.15;;;;;;;;;;5105228;28;20076;-71
2021/08/15 00:07:19;;;;;;;11.23;7.80;;;;;;;;;;5110531;28;20043;-72
2021/08/15 00:09:45;;;;;;;14.00;7.97;;;;;;;;;;5111615;28;20428;-72
2021/08/15 00:12:12;;;;;;;14.02;8.60;;;;;;;;;;5108035;28;20044;-72
2021/08/15 00:14:39;;;;;;;11.88;7.60;;;;;;;;;;5111220;28;20050;-72
2021/08/15 00:17:05;;;;;;;11.27;7.07;;;;;;;;;;5111132;28;20047;-71
2021/08/15 00:19:32;;;;;;;11.85;8.40;;;;;;;;;;5111431;28;20114;-71
2021/08/15 00:21:58;;;;;;;11.68;8.75;;;;;;;;;;5102437;28;20047;-71
2021/08/15 00:24:26;;;;;;;13.15;8.02;;;;;;;;;;5111014;28;20051;-72
2021/08/15 00:26:53;;;;;;;12.25;7.60;;;;;;;;;;5111387;28;20050;-72
2021/08/15 00:29:19;;;;;;;11.90;7.97;;;;;;;;;;5113586;28;20044;-72
2021/08/15 00:31:46;;;;;;;13.05;7.45;;;;;;;;;;5115029;28;20047;-72
2021/08/15 00:34:12;;;;;;;10.52;7.47;;;;;;;;;;5114820;28;20054;-72
2021/08/15 00:36:39;;;;;;;10.35;7.60;;;;;;;;;;5112036;28;20058;-72
2021/08/15 00:39:05;;;;;;;16.10;8.77;;;;;;;;;;5107591;28;20051;-72
2021/08/15 00:41:33;;;;;;;15.88;8.48;;;;;;;;;;5105763;28;20428;-72
2021/08/15 00:44:01;;;;;;;10.77;7.88;;;;;;;;;;5114883;28;20048;-72
2021/08/15 00:46:28;;;;;;;10.77;7.35;;;;;;;;;;5114399;28;20044;-72
2021/08/15 00:48:54;;;;;;;12.43;8.27;;;;;;;;;;5114880;28;20050;-72
2021/08/15 00:51:21;;;;;;;11.45;8.65;;;;;;;;;;5114543;28;20047;-72
2021/08/15 00:53:48;;;;;;;14.75;8.07;;;;;;;;;;5114379;28;20047;-72
2021/08/15 00:56:15;;;;;;;10.48;7.68;;;;;;;;;;5114432;28;20053;-72
2021/08/15 00:58:43;;;;;;;10.80;7.85;;;;;;;;;;5114630;28;20058;-72
2021/08/15 01:01:11;;;;;;;11.45;7.68;;;;;;;;;;5114694;28;20051;-71
2021/08/15 01:03:38;;;;;;;14.13;9.20;;;;;;;;;;5114913;28;20534;-72
2021/08/15 01:06:06;;;;;;;17.60;7.75;;;;;;;;;;5113470;28;20044;-72
2021/08/15 01:08:34;;;;;;;15.10;8.45;;;;;;;;;;5114373;28;20138;-72
2021/08/15 01:11:01;;;;;;;11.18;7.47;;;;;;;;;;5113981;28;20047;-72
2021/08/15 01:13:28;;;;;;;11.13;7.93;;;;;;;;;;5114073;28;20047;-71
2021/08/15 01:15:56;;;;;;;10.43;7.35;;;;;;;;;;5113636;28;20420;-72
2021/08/15 01:18:24;;;;;;;10.88;8.57;;;;;;;;;;5113430;28;20052;-70
2021/08/15 01:20:56;;;;;;;12.20;7.95;;;;;;;;;;5102916;28;20400;-72
2021/08/15 01:23:22;;;;;;;10.35;7.07;;;;;;;;;;5093625;28;20598;-73
2021/08/15 01:25:49;;;;;;;9.82;7.32;;;;;;;;;;5093049;28;20040;-71
2021/08/15 01:28:17;;;;;;;12.02;8.52;;;;;;;;;;5095671;27;20055;-72
2021/08/15 01:30:44;;;;;;;13.30;8.90;;;;;;;;;;5110781;28;20050;-71
2021/08/15 01:33:12;;;;;;;11.70;7.65;;;;;;;;;;5094258;28;20044;-71
2021/08/15 01:35:39;;;;;;;14.90;8.68;;;;;;;;;;5106698;28;20044;-72
2021/08/15 01:38:05;;;;;;;12.75;8.15;;;;;;;;;;5108571;28;20117;-71
2021/08/15 01:40:32;;;;;;;12.80;7.57;;;;;;;;;;5104321;28;20052;-71
2021/08/15 01:42:58;;;;;;;13.50;8.27;;;;;;;;;;5103366;28;20575;-71
2021/08/15 01:45:26;;;;;;;10.63;7.40;;;;;;;;;;5113340;28;20055;-72
2021/08/15 01:47:53;;;;;;;13.32;9.07;;;;;;;;;;5113479;28;20070;-72
2021/08/15 01:50:19;;;;;;;11.02;8.48;;;;;;;;;;5113262;28;20043;-71
2021/08/15 01:52:46;;;;;;;13.45;7.82;;;;;;;;;;5113298;28;20063;-70
2021/08/15 01:55:13;;;;;;;13.25;8.23;;;;;;;;;;5113152;28;20048;-70
2021/08/15 01:57:40;;;;;;;12.05;7.80;;;;;;;;;;5113224;28;20052;-71
2021/08/15 02:00:08;;;;;;;12.43;8.02;;;;;;;;;;5113607;28;20056;-71
2021/08/15 02:02:35;;;;;;;11.13;7.18;;;;;;;;;;5113231;28;20043;-71
2021/08/15 02:05:02;;;;;;;12.13;7.65;;;;;;;;;;5113382;28;20407;-70
2021/08/15 02:07:29;;;;;;;11.38;8.73;;;;;;;;;;5113130;28;20044;-71
2021/08/15 02:09:55;;;;;;;16.45;9.10;;;;;;;;;;5113014;28;20051;-71
2021/08/15 02:12:22;;;;;;;12.57;8.95;;;;;;;;;;5112676;28;20043;-71
2021/08/15 02:14:48;;;;;;;13.70;8.88;;;;;;;;;;5113218;28;20165;-72
2021/08/15 02:17:15;;;;;;;12.80;8.18;;;;;;;;;;5113251;28;20048;-71
2021/08/15 02:19:43;;;;;;;11.05;7.78;;;;;;;;;;5112327;28;20039;-71
2021/08/15 02:22:09;;;;;;;15.43;10.18;;;;;;;;;;5111744;28;20063;-71
2021/08/15 02:24:36;;;;;;;15.52;9.05;;;;;;;;;;5112874;28;20056;-71
2021/08/15 02:27:02;;;;;;;11.98;8.60;;;;;;;;;;5112824;28;20395;-71
2021/08/15 02:29:29;;;;;;;9.95;7.45;;;;;;;;;;5112914;28;20388;-71
2021/08/15 02:31:55;;;;;;;11.65;8.23;;;;;;;;;;5113000;28;20051;-71
2021/08/15 02:34:24;;;;;;;14.07;8.40;;;;;;;;;;5112781;28;20058;-71
2021/08/15 02:36:52;;;;;;;11.98;8.05;;;;;;;;;;5112649;28;20581;-71
2021/08/15 02:39:18;;;;;;;14.90;9.77;;;;;;;;;;5109564;28;20054;-71
2021/08/15 02:41:45;;;;;;;15.60;10.18;;;;;;;;;;5104296;28;20056;-71
2021/08/15 02:44:11;;;;;;;14.98;9.65;;;;;;;;;;5106871;28;20077;-71
2021/08/15 02:46:38;;;;;;;12.30;8.52;;;;;;;;;;5111960;28;20052;-71
2021/08/15 02:49:04;;;;;;;11.48;9.05;;;;;;;;;;5112579;28;20069;-71
2021/08/15 02:51:31;;;;;;;13.80;9.50;;;;;;;;;;5111999;28;20474;-71
2021/08/15 02:53:59;;;;;;;12.40;8.68;;;;;;;;;;5112407;28;20055;-71
2021/08/15 02:56:26;;;;;;;13.23;8.88;;;;;;;;;;5112520;28;20062;-71
2021/08/15 02:58:52;;;;;;;13.02;8.23;;;;;;;;;;5112526;28;20481;-71
2021/08/15 03:01:19;;;;;;;14.10;9.38;;;;;;;;;;5112413;28;20524;-71
2021/08/15 03:03:45;;;;;;;14.75;10.18;;;;;;;;;;5112251;28;20048;-70
2021/08/15 03:06:12;;;;;;;13.20;10.02;;;;;;;;;;5112197;28;20385;-70
2021/08/15 03:08:38;;;;;;;11.60;8.23;;;;;;;;;;5112187;28;20058;-70
2021/08/15 03:11:06;;;;;;;12.98;8.75;;;;;;;;;;5112401;28;20056;-70
2021/08/15 03:13:33;;;;;;;12.73;8.38;;;;;;;;;;5112299;28;20606;-70
2021/08/15 03:15:59;;;;;;;14.35;8.80;;;;;;;;;;5112007;28;20047;-70
2021/08/15 03:18:25;;;;;;;12.25;9.70;;;;;;;;;;5111966;28;20047;-70
2021/08/15 03:20:52;;;;;;;13.05;9.07;;;;;;;;;;5111862;28;20507;-70
2021/08/15 03:23:19;;;;;;;17.38;9.90;;;;;;;;;;5112134;28;20058;-71
2021/08/15 03:25:45;;;;;;;12.73;8.13;;;;;;;;;;5111798;28;20043;-70
2021/08/15 03:28:13;;;;;;;12.77;8.43;;;;;;;;;;5112157;28;20426;-70
2021/08/15 03:30:39;;;;;;;12.00;8.45;;;;;;;;;;5112028;28;20051;-70
2021/08/15 03:33:06;;;;;;;13.85;9.20;;;;;;;;;;5112158;28;20050;-70
2021/08/15 03:35:32;;;;;;;13.82;8.18;;;;;;;;;;5111893;28;20050;-70
2021/08/15 03:37:59;;;;;;;11.10;8.40;;;;;;;;;;5111758;28;20055;-71
2021/08/15 03:40:25;;;;;;;11.95;8.90;;;;;;;;;;5108290;28;20044;-71
2021/08/15 03:42:52;;;;;;;10.65;8.10;;;;;;;;;;5101862;28;20384;-71
2021/08/15 03:45:19;;;;;;;13.70;8.75;;;;;;;;;;5095863;28;20129;-71
2021/08/15 03:47:46;;;;;;;10.50;7.68;;;;;;;;;;5091232;28;20052;-71
2021/08/15 03:50:12;;;;;;;13.52;9.13;;;;;;;;;;5100038;28;20047;-71
2021/08/15 03:52:40;;;;;;;17.42;8.95;;;;;;;;;;5111494;28;20052;-71
2021/08/15 03:55:10;;;;;;;13.00;8.57;;;;;;;;;;5111781;28;20472;-70
2021/08/15 03:57:37;;;;;;;12.55;9.05;;;;;;;;;;5111477;28;20043;-70
2021/08/15 04:00:04;;;;;;;11.80;8.50;;;;;;;;;;5111727;28;20043;-71
2021/08/15 04:02:32;;;;;;;13.60;8.60;;;;;;;;;;5111805;28;20087;-70
2021/08/15 04:04:59;;;;;;;13.88;8.02;;;;;;;;;;5115136;28;20048;-70
2021/08/15 04:07:25;;;;;;;13.07;10.27;;;;;;;;;;5115373;28;20047;-69
2021/08/15 04:09:52;;;;;;;14.82;8.98;;;;;;;;;;5115597;28;20048;-70
2021/08/15 04:12:18;;;;;;;10.57;8.48;;;;;;;;;;5115174;28;20059;-70
2021/08/15 04:14:45;;;;;;;13.35;8.18;;;;;;;;;;5115597;28;20051;-70
2021/08/15 04:17:11;;;;;;;13.48;8.77;;;;;;;;;;5115557;28;20050;-70
2021/08/15 04:19:39;;;;;;;11.18;8.13;;;;;;;;;;5115108;28;20066;-70
2021/08/15 04:22:06;;;;;;;13.00;8.55;;;;;;;;;;5115085;28;20052;-70
2021/08/15 04:24:32;;;;;;;13.65;9.02;;;;;;;;;;5115007;28;20052;-70
2021/08/15 04:26:59;;;;;;;10.82;8.10;;;;;;;;;;5115211;28;20482;-70
2021/08/15 04:29:25;;;;;;;11.13;8.75;;;;;;;;;;5115346;28;20054;-70
2021/08/15 04:31:52;;;;;;;13.07;8.45;;;;;;;;;;5115262;28;20051;-70
2021/08/15 04:34:20;;;;;;;10.52;7.75;;;;;;;;;;5115205;28;20054;-70
2021/08/15 04:36:48;;;;;;;11.27;7.97;;;;;;;;;;5115264;28;20066;-70
2021/08/15 04:39:14;;;;;;;13.45;8.88;;;;;;;;;;5115117;28;20048;-70
2021/08/15 04:41:40;;;;;;;12.57;7.43;;;;;;;;;;5110955;28;20680;-70
2021/08/15 04:44:07;;;;;;;16.25;8.60;;;;;;;;;;5106158;28;20039;-70
2021/08/15 04:46:33;;;;;;;10.43;7.68;;;;;;;;;;5096525;28;20048;-70
2021/08/15 04:49:00;;;;;;;15.02;9.95;;;;;;;;;;5094615;28;20056;-70
2021/08/15 04:51:26;;;;;;;13.45;8.80;;;;;;;;;;5094567;28;20469;-70
2021/08/15 04:53:54;;;;;;;11.60;7.72;;;;;;;;;;5094548;28;20052;-70
2021/08/15 04:56:21;;;;;;;12.38;8.65;;;;;;;;;;5094216;28;20059;-70
2021/08/15 04:58:47;;;;;;;12.68;8.27;;;;;;;;;;5094528;28;20158;-70
2021/08/15 05:01:14;;;;;;;9.73;7.60;;;;;;;;;;5094334;28;20469;-70
2021/08/15 05:03:40;;;;;;;10.93;8.02;;;;;;;;;;5094180;28;20048;-70
2021/08/15 05:06:07;;;;;;;11.35;8.13;;;;;;;;;;5093832;28;20044;-70
2021/08/15 05:08:33;;;;;;;11.52;7.68;;;;;;;;;;5093941;28;20059;-71
2021/08/15 05:11:01;;;;;;;12.63;8.73;;;;;;;;;;5098465;28;20070;-70
2021/08/15 05:13:28;;;;;;;14.90;9.38;;;;;;;;;;5113983;28;20055;-70
2021/08/15 05:15:54;;;;;;;11.70;8.32;;;;;;;;;;5113492;28;20047;-70
2021/08/15 05:18:21;;;;;;;10.32;7.57;;;;;;;;;;5099312;28;20558;-70
2021/08/15 05:20:48;;;;;;;14.75;9.25;;;;;;;;;;5093667;28;20485;-70
2021/08/15 05:23:14;;;;;;;16.58;9.45;;;;;;;;;;5092950;28;20044;-70
2021/08/15 05:25:41;;;;;;;13.40;8.77;;;;;;;;;;5093171;28;20504;-70
2021/08/15 05:28:08;;;;;;;10.23;7.53;;;;;;;;;;5093552;28;20048;-70
2021/08/15 05:30:35;;;;;;;14.95;9.98;;;;;;;;;;5093350;28;20055;-70
2021/08/15 05:33:02;;;;;;;13.57;8.27;;;;;;;;;;5093683;28;20048;-70
2021/08/15 05:35:28;;;;;;;14.35;8.75;;;;;;;;;;5093489;28;20062;-71
2021/08/15 05:37:55;;;;;;;13.32;10.55;;;;;;;;;;5093347;28;20051;-70
2021/08/15 05:40:21;;;;;;;14.25;10.02;;;;;;;;;;5093398;28;20044;-70
2021/08/15 05:42:48;;;;;;;16.33;10.65;;;;;;;;;;5108409;28;20056;-70
2021/08/15 05:45:16;;;;;;;17.33;10.60;;;;;;;;;;5105342;28;20457;-70
2021/08/15 05:47:42;;;;;;;15.45;10.88;;;;;;;;;;5092969;28;20050;-70
2021/08/15 05:50:10;;;;;;;13.00;9.27;;;;;;;;;;5093228;28;20048;-70
2021/08/15 05:52:37;;;;;;;17.65;10.20;;;;;;;;;;5092951;28;20052;-70
2021/08/15 05:55:05;;;;;;;13.73;9.52;;;;;;;;;;5093143;28;20501;-71
2021/08/15 05:57:31;;;;;;;16.58;11.93;;;;;;;;;;5092761;28;20130;-71
2021/08/15 05:59:58;;;;;;;15.13;10.57;;;;;;;;;;5093166;28;20134;-71
2021/08/15 06:02:26;;;;;;;13.63;9.77;;;;;;;;;;5092871;28;20059;-71
2021/08/15 06:04:52;;;;;;;16.25;11.32;;;;;;;;;;5093034;28;20488;-71
2021/08/15 06:07:19;;;;;;;14.80;10.30;;;;;;;;;;5092750;28;20380;-71
2021/08/15 06:09:45;;;;;;;15.57;10.65;;;;;;;;;;5092991;28;20044;-71
2021/08/15 06:12:12;;;;;;;13.35;10.32;;;;;;;;;;5108954;28;20054;-71
2021/08/15 06:14:38;;;;;;;15.45;10.88;;;;;;;;;;5113323;28;20051;-71
2021/08/15 06:17:05;;;;;;;18.85;11.27;;;;;;;;;;5112844;28;20043;-71
2021/08/15 06:19:33;;;;;;;14.18;10.48;;;;;;;;;;5112698;28;20058;-71
2021/08/15 06:22:00;;;;;;;15.40;10.93;;;;;;;;;;5112411;28;20055;-71
2021/08/15 06:24:27;;;;;;;14.88;11.48;;;;;;;;;;5112868;28;20090;-71
2021/08/15 06:26:53;;;;;;;14.65;10.80;;;;;;;;;;5112444;28;20371;-72
2021/08/15 06:29:20;;;;;;;15.15;10.05;;;;;;;;;;5112663;28;20062;-72
2021/08/15 06:31:46;;;;;;;15.15;11.20;;;;;;;;;;5112954;28;20044;-72
2021/08/15 06:34:13;;;;;;;15.73;11.10;;;;;;;;;;5112804;28;20051;-72
2021/08/15 06:36:41;;;;;;;14.60;12.00;;;;;;;;;;5112788;28;20055;-72
2021/08/15 06:39:07;;;;;;;19.27;12.50;;;;;;;;;;5112469;28;20066;-72
2021/08/15 06:41:34;;;;;;;24.52;13.65;;;;;;;;;;5112466;28;20055;-72
2021/08/15 06:44:01;;;;;;;21.60;12.60;;;;;;;;;;5107583;28;20043;-72
2021/08/15 06:46:27;;;;;;;19.00;12.98;;;;;;;;;;5108411;28;20043;-73
2021/08/15 06:48:54;;;;;;;14.07;12.32;;;;;;;;;;5110821;28;20046;-74
2021/08/15 06:51:20;;;;;;;15.85;12.57;;;;;;;;;;5111039;28;20051;-72
2021/08/15 06:53:48;;;;;;;23.23;11.88;;;;;;;;;;5110507;28;20043;-72
2021/08/15 06:56:15;;;;;;;19.00;11.27;;;;;;;;;;5110835;28;20138;-73
2021/08/15 06:58:41;;;;;;;13.43;10.70;;;;;;;;;;5110952;28;20059;-73
2021/08/15 07:01:08;;;;;;;18.30;12.23;;;;;;;;;;5108385;28;20048;-73
2021/08/15 07:03:34;;;;;;;15.10;10.52;;;;;;;;;;5110988;28;20047;-73
2021/08/15 07:06:02;;;;;;;17.02;10.63;;;;;;;;;;5110783;28;20047;-74
2021/08/15 07:08:28;;;;;;;14.75;9.93;;;;;;;;;;5107529;28;20044;-72
2021/08/15 07:10:56;;;;;;;16.65;10.57;;;;;;;;;;5109896;28;20047;-73
2021/08/15 07:13:23;;;;;;;15.65;10.65;;;;;;;;;;5111131;28;20443;-73
2021/08/15 07:15:50;;;;;;;15.48;9.63;;;;;;;;;;5111764;28;20144;-73
2021/08/15 07:18:17;;;;;;;15.02;10.77;;;;;;;;;;5111625;28;20126;-73
2021/08/15 07:20:44;;;;;;;18.48;11.18;;;;;;;;;;5111053;28;20043;-73
2021/08/15 07:23:10;;;;;;;13.55;9.85;;;;;;;;;;5112002;28;20495;-73
2021/08/15 07:25:37;;;;;;;12.23;9.43;;;;;;;;;;5111678;28;20043;-72
2021/08/15 07:28:05;;;;;;;14.50;9.10;;;;;;;;;;5111447;28;20043;-73
2021/08/15 07:30:33;;;;;;;11.65;8.65;;;;;;;;;;5111582;28;20047;-73
2021/08/15 07:33:00;;;;;;;16.40;9.25;;;;;;;;;;5111805;28;20044;-74
2021/08/15 07:35:28;;;;;;;15.20;9.65;;;;;;;;;;5111319;28;20036;-73
2021/08/15 07:37:55;;;;;;;11.07;9.32;;;;;;;;;;5113475;28;20082;-73
2021/08/15 07:40:22;;;;;;;13.23;8.77;;;;;;;;;;5112953;28;20048;-73
2021/08/15 07:42:50;;;;;;;11.93;7.10;;;;;;;;;;5115345;28;20062;-73
2021/08/15 07:45:19;;;;;;;11.85;6.97;;;;;;;;;;5112947;28;20377;-73
2021/08/15 07:47:46;;;;;;;9.73;7.03;;;;;;;;;;5113419;28;20100;-72
2021/08/15 07:50:13;;;;;;;9.90;7.07;;;;;;;;;;5115404;28;20127;-72
2021/08/15 07:52:39;;;;;;;8.98;6.65;;;;;;;;;;5115886;28;20048;-72
2021/08/15 07:55:07;;;;;;;10.07;6.93;;;;;;;;;;5116114;28;20427;-72
2021/08/15 07:57:33;;;;;;;12.32;7.40;;;;;;;;;;5115711;28;20063;-72
2021/08/15 08:00:00;;;;;;;10.57;6.47;;;;;;;;;;5103444;28;20048;-71
2021/08/15 08:02:28;;;;;;;11.10;6.47;;;;;;;;;;5104995;28;20535;-73
2021/08/15 08:04:55;;;;;;;10.80;6.22;;;;;;;;;;5103922;28;20127;-72
2021/08/15 08:07:24;;;;;;;11.95;6.60;;;;;;;;;;5104644;28;20082;-72
2021/08/15 08:09:52;;;;;;;11.25;7.03;;;;;;;;;;5106588;28;20051;-71
2021/08/15 08:12:19;;;;;;;9.45;6.32;;;;;;;;;;5113825;28;20055;-71
2021/08/15 08:14:47;;;;;;;9.38;6.85;;;;;;;;;;5114950;28;20039;-72
2021/08/15 08:17:14;;;;;;;9.75;6.95;;;;;;;;;;5113859;28;20063;-72
2021/08/15 08:19:45;;;;;;;8.77;7.30;;;;;;;;;;5107088;28;20052;-68
2021/08/15 08:22:12;;;;;;;9.73;6.75;;;;;;;;;;5108522;28;20079;-71
2021/08/15 08:24:39;;;;;;;8.77;6.88;;;;;;;;;;5115431;28;20054;-72
2021/08/15 08:27:07;;;;;;;12.40;7.57;;;;;;;;;;5114890;28;20476;-72
2021/08/15 08:29:34;;;;;;;11.02;6.90;;;;;;;;;;5114651;28;20617;-71
2021/08/15 08:32:19;;;;;;;9.85;7.03;;;;;;;;;;5113599;28;20063;-71
2021/08/15 08:34:48;;;;;;;10.45;7.20;;;;;;;;;;5114270;28;20052;-72
2021/08/15 08:37:18;;;;;;;10.18;6.85;;;;;;;;;;5114787;28;20061;-72
2021/08/15 08:39:46;;;;;;;9.68;6.93;;;;;;;;;;5114148;28;20492;-71
2021/08/15 08:42:16;;;;;;;9.85;7.32;;;;;;;;;;5113695;28;20062;-71
2021/08/15 08:44:43;;;;;;;12.65;7.00;;;;;;;;;;5111796;28;20107;-71
2021/08/15 08:47:11;;;;;;;8.73;5.70;;;;;;;;;;5105879;28;20056;-73
2021/08/15 08:49:45;;;;;;;7.35;6.15;;;;;;;;;;5106725;28;20135;-72
2021/08/15 08:52:13;;;;;;;9.03;6.70;;;;;;;;;;5112391;28;20557;-70
2021/08/15 08:54:43;;;;;;;9.77;6.00;;;;;;;;;;5114602;28;20078;-72
2021/08/15 08:57:15;;;;;;;9.25;6.78;;;;;;;;;;5110468;28;20071;-73
2021/08/15 08:59:48;;;;;;;8.25;6.25;;;;;;;;;;5104926;28;20087;-72
2021/08/15 09:02:24;;;;;;;9.55;5.88;;;;;;;;;;5102008;28;20048;-71
2021/08/15 09:04:50;;;;;;;;;;;;;;;;;;5094344;28;20051;-71
2021/08/15 09:07:29;;;;;;;6.53;5.57;;;;;;;;;;5093250;28;19920;-72
2021/08/15 09:10:07;;;;;;;9.40;6.22;;;;;;;;;;5093873;28;20113;-72
2021/08/15 09:12:40;;;;;;;8.98;5.70;;;;;;;;;;5112462;28;20059;-71
2021/08/15 09:15:10;;;;;;;9.20;5.75;;;;;;;;;;5113727;28;20047;-72
2021/08/15 09:17:47;;;;;;;8.10;5.80;;;;;;;;;;5111581;28;20053;-73
2021/08/15 09:20:24;;;;;;;8.65;5.65;;;;;;;;;;5113624;28;20078;-72
2021/08/15 09:22:53;;;;;;;10.95;6.10;;;;;;;;;;5114180;28;20139;-72
2021/08/15 09:25:24;;;;;;;13.73;5.97;;;;;;;;;;5114170;28;20374;-71
2021/08/15 09:27:56;;;;;;;7.18;5.30;;;;;;;;;;5113810;28;20476;-71
2021/08/15 09:30:27;;;;;;;8.13;6.03;;;;;;;;;;5113602;28;20058;-71
2021/08/15 09:32:59;;;;;;;6.72;5.63;;;;;;;;;;5112977;28;20062;-71
2021/08/15 09:35:32;;;;;;;7.50;5.15;;;;;;;;;;5110978;28;20051;-72
2021/08/15 09:38:07;;;;;;;7.63;5.43;;;;;;;;;;5113655;28;20043;-72
2021/08/15 09:40:39;;;;;;;7.90;6.22;;;;;;;;;;5111480;28;20046;-74
2021/08/15 09:43:14;;;;;;;9.00;5.82;;;;;;;;;;5110675;28;20051;-72
2021/08/15 09:45:45;;;;;;;7.80;5.60;;;;;;;;;;5110107;28;20435;-71
2021/08/15 09:48:37;;;;;;;9.07;5.43;;;;;;;;;;5111941;28;20070;-72
2021/08/15 09:51:09;;;;;;;10.75;6.47;;;;;;;;;;5109958;28;20059;-71
2021/08/15 09:53:39;;;;;;;9.85;5.43;;;;;;;;;;5113035;28;20063;-72
2021/08/15 09:56:10;;;;;;;7.57;4.97;;;;;;;;;;5113054;28;20051;-71
2021/08/15 09:58:49;;;;;;;8.40;5.20;;;;;;;;;;5112927;28;20467;-72
2021/08/15 10:01:31;;;;;;;7.57;5.45;;;;;;;;;;5109643;28;20052;-72
2021/08/15 10:04:04;;;;;;;9.57;6.35;;;;;;;;;;5111549;28;20053;-71
2021/08/15 10:06:35;;;;;;;7.43;5.30;;;;;;;;;;5110382;28;20464;-72
2021/08/15 10:09:07;;;;;;;7.45;5.32;;;;;;;;;;5112494;28;21301;-72
2021/08/15 10:11:39;;;;;;;8.40;5.35;;;;;;;;;;5110374;28;20047;-73
2021/08/15 10:14:11;;;;;;;8.77;5.80;;;;;;;;;;5111325;28;20039;-72
2021/08/15 10:16:43;;;;;;;7.70;5.40;;;;;;;;;;5111264;28;20039;-72
2021/08/15 10:19:34;;;;;;;8.32;5.72;;;;;;;;;;5110309;28;20054;-72
2021/08/15 10:22:11;;;;;;;10.73;5.90;;;;;;;;;;5111583;28;20092;-71
2021/08/15 10:24:46;;;;;;;8.70;5.72;;;;;;;;;;5111349;28;20134;-70
2021/08/15 10:27:50;;;;;;;6.95;5.68;;;;;;;;;;5109941;28;20547;-72
2021/08/15 10:30:53;;;;;;;7.65;5.88;;;;;;;;;;5107586;28;20454;-71
2021/08/15 10:33:29;;;;;;;8.65;6.28;;;;;;;;;;5068216;28;20055;-71
2021/08/15 10:36:25;;;;;;;6.45;5.35;;;;;;;;;;5110876;28;20072;-72
2021/08/15 10:38:56;;;;;;;11.40;6.72;;;;;;;;;;5107065;28;20039;-71
2021/08/15 10:41:55;;;;;;;8.57;5.78;;;;;;;;;;5111735;28;20135;-71
2021/08/15 10:44:24;;;;;;;17.38;6.15;;;;;;;;;;5110924;28;20051;-72
2021/08/15 10:47:20;;;;;;;10.68;5.68;;;;;;;;;;5107053;28;20150;-72
2021/08/15 10:50:02;;;;;;;10.75;6.55;;;;;;;;;;5101365;28;20048;-71
2021/08/15 10:52:45;;;;;;;10.60;5.97;;;;;;;;;;5109638;28;20062;-72
2021/08/15 10:55:17;;;;;;;6.93;5.78;;;;;;;;;;5105094;28;20079;-71
2021/08/15 10:57:57;;;;;;;11.73;5.75;;;;;;;;;;5111418;28;20393;-71
2021/08/15 11:03:59;;;;;;;10.05;5.50;;;;;;;;;;5088746;28;20474;-70
2021/08/15 11:06:48;;;;;;;6.82;5.60;;;;;;;;;;5108527;28;20082;-71
2021/08/15 11:09:16;;;;;;;11.00;6.20;;;;;;;;;;5111179;28;20047;-70
2021/08/15 11:12:08;;;;;;;8.10;6.20;;;;;;;;;;5111700;28;20481;-70
2021/08/15 11:14:36;;;;;;;9.02;5.40;;;;;;;;;;5112077;28;20094;-70
2021/08/15 11:17:15;;;;;;;8.75;5.50;;;;;;;;;;5111811;28;20059;-70
2021/08/15 11:19:42;;;;;;;9.15;5.68;;;;;;;;;;5111897;28;20536;-70
2021/08/15 11:22:14;;;;;;;9.50;5.95;;;;;;;;;;5111619;28;20142;-70
2021/08/15 11:24:52;;;;;;;7.88;5.40;;;;;;;;;;5111614;28;20453;-70
2021/08/15 11:27:31;;;;;;;8.50;5.10;;;;;;;;;;5111838;28;20067;-70
2021/08/15 11:30:02;;;;;;;9.15;5.75;;;;;;;;;;5111665;28;20131;-70
2021/08/15 11:32:30;;;;;;;8.38;5.43;;;;;;;;;;5094712;28;20051;-71
2021/08/15 11:34:58;;;;;;;9.48;6.10;;;;;;;;;;5110144;28;20040;-70
2021/08/15 11:37:26;;;;;;;8.93;5.07;;;;;;;;;;5109027;28;20083;-71
2021/08/15 11:39:54;;;;;;;8.85;5.60;;;;;;;;;;5110551;28;20131;-70
2021/08/15 11:42:22;;;;;;;9.38;5.60;;;;;;;;;;5109274;28;20058;-70
2021/08/15 11:44:53;;;;;;;7.90;5.57;;;;;;;;;;5110666;28;20453;-70
2021/08/15 11:47:23;;;;;;;8.05;5.30;;;;;;;;;;5107628;28;20048;-70
2021/08/15 11:49:50;;;;;;;8.57;5.70;;;;;;;;;;5104983;28;20036;-70
2021/08/15 11:52:19;;;;;;;8.88;5.95;;;;;;;;;;5099084;28;20054;-70
2021/08/15 11:54:46;;;;;;;9.10;5.15;;;;;;;;;;5090432;28;20044;-70
2021/08/15 11:57:14;;;;;;;10.82;6.05;;;;;;;;;;5090565;28;20571;-70
2021/08/15 11:59:41;;;;;;;10.18;6.47;;;;;;;;;;5090426;28;20054;-71
2021/08/15 12:02:15;;;;;;;10.43;6.25;;;;;;;;;;5090610;28;20048;-70
2021/08/15 12:04:44;;;;;;;9.80;5.07;;;;;;;;;;5090444;28;20062;-70
2021/08/15 12:07:11;;;;;;;7.72;5.35;;;;;;;;;;5090690;28;20067;-70
2021/08/15 12:09:37;;;;;;;10.75;6.55;;;;;;;;;;5090221;28;20481;-70
2021/08/15 12:12:05;;;;;;;9.50;6.03;;;;;;;;;;5105939;28;20133;-71
2021/08/15 12:14:34;;;;;;;8.43;5.55;;;;;;;;;;5107971;28;20096;-71
2021/08/15 12:17:00;;;;;;;11.15;6.15;;;;;;;;;;5110511;28;20052;-70
2021/08/15 12:19:29;;;;;;;10.10;6.10;;;;;;;;;;5110411;28;20040;-71
2021/08/15 12:21:58;;;;;;;11.82;6.15;;;;;;;;;;5107900;28;20063;-70
2021/08/15 12:24:26;;;;;;;14.23;6.60;;;;;;;;;;5110939;28;20048;-70
2021/08/15 12:26:57;;;;;;;10.23;5.68;;;;;;;;;;5112035;28;20055;-70
2021/08/15 12:29:25;;;;;;;8.77;5.50;;;;;;;;;;5113888;28;20055;-70
2021/08/15 12:32:10;;;;;;;9.10;5.80;;;;;;;;;;5114764;28;20138;-70
2021/08/15 12:34:38;;;;;;;12.55;6.63;;;;;;;;;;5114565;28;20051;-70
2021/08/15 12:37:18;;;;;;;15.18;6.30;;;;;;;;;;5114402;28;20058;-70
2021/08/15 12:39:45;;;;;;;10.15;6.22;;;;;;;;;;5114226;28;20050;-70
2021/08/15 12:42:18;;;;;;;14.73;6.75;;;;;;;;;;5114603;28;20445;-70
2021/08/15 12:44:47;;;;;;;15.93;7.22;;;;;;;;;;5113916;28;20043;-70
2021/08/15 12:47:14;;;;;;;14.98;6.38;;;;;;;;;;5114446;28;20058;-72
2021/08/15 12:49:42;;;;;;;14.35;7.35;;;;;;;;;;5111104;28;20040;-70
2021/08/15 12:52:21;;;;;;;11.70;6.28;;;;;;;;;;5112627;28;20043;-70
2021/08/15 12:55:14;;;;;;;14.88;6.88;;;;;;;;;;5112959;28;20075;-71
2021/08/15 12:57:45;;;;;;;11.75;7.05;;;;;;;;;;5111389;28;20058;-70
2021/08/15 13:00:16;;;;;;;15.57;6.45;;;;;;;;;;5113828;28;20472;-70
2021/08/15 13:02:43;;;;;;;11.57;6.45;;;;;;;;;;5111469;28;20051;-71
2021/08/15 13:05:13;;;;;;;10.85;7.20;;;;;;;;;;5113067;28;20073;-70
2021/08/15 13:07:41;;;;;;;11.10;7.65;;;;;;;;;;5108121;28;20054;-71
2021/08/15 13:10:09;;;;;;;9.32;6.65;;;;;;;;;;5113652;28;20043;-71
2021/08/15 13:12:36;;;;;;;11.13;7.00;;;;;;;;;;5113400;28;20077;-71
2021/08/15 13:15:03;;;;;;;10.15;6.60;;;;;;;;;;5113238;28;20074;-72
2021/08/15 13:17:30;;;;;;;11.00;6.53;;;;;;;;;;5113403;28;20055;-72
2021/08/15 13:19:56;;;;;;;8.52;6.47;;;;;;;;;;5113105;28;20778;-72
2021/08/15 13:22:23;;;;;;;8.82;7.00;;;;;;;;;;5113213;28;20051;-71
2021/08/15 13:24:51;;;;;;;9.90;6.90;;;;;;;;;;5113203;28;20036;-71
2021/08/15 13:27:19;;;;;;;10.70;6.60;;;;;;;;;;5110404;28;20052;-71
2021/08/15 13:29:45;;;;;;;11.13;5.95;;;;;;;;;;5113104;28;20040;-71
2021/08/15 13:32:12;;;;;;;10.63;6.53;;;;;;;;;;5113128;28;20637;-73
2021/08/15 13:34:41;;;;;;;9.40;6.57;;;;;;;;;;5112909;28;20055;-71
2021/08/15 13:37:11;;;;;;;9.55;6.75;;;;;;;;;;5112580;28;20086;-71
2021/08/15 13:39:38;;;;;;;9.93;6.13;;;;;;;;;;5110251;28;20135;-72
2021/08/15 13:42:09;;;;;;;8.82;6.18;;;;;;;;;;5112519;28;20050;-72
2021/08/15 13:44:36;;;;;;;9.98;6.13;;;;;;;;;;5112955;28;20040;-72
2021/08/15 13:47:03;;;;;;;10.82;6.43;;;;;;;;;;5112820;28;20048;-71
2021/08/15 13:49:30;;;;;;;11.40;6.15;;;;;;;;;;5111340;28;20059;-71
2021/08/15 13:51:56;;;;;;;11.18;6.82;;;;;;;;;;5109084;28;20048;-70
2021/08/15 13:54:23;;;;;;;12.02;7.13;;;;;;;;;;5104941;28;20048;-71
2021/08/15 13:56:50;;;;;;;9.48;6.60;;;;;;;;;;5092231;28;20048;-71
2021/08/15 13:59:18;;;;;;;10.82;6.30;;;;;;;;;;5092054;28;20048;-71
2021/08/15 14:01:44;;;;;;;10.90;5.93;;;;;;;;;;5100986;28;20058;-70
2021/08/15 14:04:10;;;;;;;14.95;6.50;;;;;;;;;;5112360;28;20047;-70
2021/08/15 14:06:38;;;;;;;10.85;6.38;;;;;;;;;;5112887;28;20563;-70
2021/08/15 14:09:05;;;;;;;10.77;6.90;;;;;;;;;;5112086;28;20093;-70
2021/08/15 14:11:32;;;;;;;10.23;6.60;;;;;;;;;;5112446;28;20464;-72
2021/08/15 14:13:59;;;;;;;9.43;5.65;;;;;;;;;;5113500;28;20058;-70
2021/08/15 14:16:27;;;;;;;6.53;4.10;;;;;;;;;;5112429;28;20063;-70
2021/08/15 14:18:54;;;;;;;12.75;4.25;;;;;;;;;;5113588;28;20058;-68
2021/08/15 14:21:21;;;;;;;8.27;3.85;;;;;;;;;;5112831;28;20057;-69
2021/08/15 14:23:48;;;;;;;10.95;4.03;;;;;;;;;;5112984;28;20491;-71
2021/08/15 14:26:17;;;;;;;8.85;4.22;;;;;;;;;;5113138;28;20545;-70
2021/08/15 14:28:43;;;;;;;7.13;3.45;;;;;;;;;;5112567;28;20071;-68
2021/08/15 14:31:10;;;;;;;9.90;3.22;;;;;;;;;;5112532;28;20114;-68
2021/08/15 14:33:38;;;;;;;12.05;3.80;;;;;;;;;;5112274;28;20047;-68
2021/08/15 14:36:04;;;;;;;7.63;3.63;;;;;;;;;;5112329;28;20499;-70
2021/08/15 14:38:31;;;;;;;6.53;3.70;;;;;;;;;;5111693;28;20111;-68
2021/08/15 14:40:58;;;;;;;8.25;4.15;;;;;;;;;;5112160;28;20058;-69
2021/08/15 14:43:25;;;;;;;9.52;3.60;;;;;;;;;;5112326;28;20129;-70
2021/08/15 14:45:51;;;;;;;8.48;3.70;;;;;;;;;;5096638;28;20416;-70
2021/08/15 14:48:18;;;;;;;9.18;3.50;;;;;;;;;;5095663;28;20052;-71